createdAt,value
2023-02-27T00:01:17.821Z,11.07
2023-02-27T00:03:44.296Z,7.93
2023-02-27T00:06:10.918Z,11.20
2023-02-27T00:08:37.341Z,10.13
2023-02-27T00:11:03.796Z,11.32
2023-02-27T00:13:30.206Z,11.18
2023-02-27T00:15:56.642Z,14.80
2023-02-27T00:18:23.408Z,12.27
2023-02-27T00:20:49.922Z,12.07
2023-02-27T00:23:16.345Z,8.73
2023-02-27T00:25:42.749Z,10.43
2023-02-27T00:28:09.134Z,11.20
2023-02-27T00:30:35.746Z,12.82
2023-02-27T00:33:02.228Z,10.43
2023-02-27T00:35:28.609Z,10.32
2023-02-27T00:37:55.111Z,11.23
2023-02-27T00:40:21.573Z,11.20
2023-02-27T00:42:49.278Z,9.25
2023-02-27T00:45:15.657Z,6.05
2023-02-27T00:47:42.090Z,6.72
2023-02-27T00:50:09.274Z,8.23
2023-02-27T00:52:35.678Z,6.70
2023-02-27T00:55:02.363Z,9.45
2023-02-27T00:57:28.808Z,8.65
2023-02-27T00:59:55.203Z,8.48
2023-02-27T01:02:21.631Z,9.45
2023-02-27T01:04:48.133Z,8.80
2023-02-27T01:07:14.526Z,6.82
2023-02-27T01:09:40.911Z,6.72
2023-02-27T01:12:07.647Z,7.75
2023-02-27T01:14:35.305Z,10.82
2023-02-27T01:17:01.843Z,7.90
2023-02-27T01:19:28.213Z,9.68
2023-02-27T01:21:54.652Z,11.25
2023-02-27T01:24:21.864Z,9.52
2023-02-27T01:26:48.539Z,9.35
2023-02-27T01:29:15.563Z,9.82
2023-02-27T01:31:42.287Z,11.85
2023-02-27T01:34:08.717Z,10.98
2023-02-27T01:36:35.223Z,11.95
2023-02-27T01:39:01.577Z,9.40
2023-02-27T01:41:29.075Z,7.15
2023-02-27T01:44:01.464Z,9.35
2023-02-27T01:46:29.320Z,33.95
2023-02-27T01:49:00.729Z,11.98
2023-02-27T01:51:30.281Z,8.85
2023-02-27T01:53:57.240Z,12.00
2023-02-27T01:56:26.328Z,9.18
2023-02-27T01:58:57.038Z,8.07
2023-02-27T02:01:24.149Z,35.28
2023-02-27T02:03:56.401Z,18.02
2023-02-27T02:06:22.936Z,10.15
2023-02-27T02:08:51.690Z,10.43
2023-02-27T02:11:19.154Z,7.70
2023-02-27T02:13:45.855Z,8.10
2023-02-27T02:16:15.276Z,11.05
2023-02-27T02:19:06.970Z,10.38
2023-02-27T02:21:39.376Z,8.95
2023-02-27T02:24:43.429Z,8.88
2023-02-27T02:27:12.826Z,8.77
2023-02-27T02:29:39.109Z,14.52
2023-02-27T02:32:11.512Z,11.73
2023-02-27T02:35:02.785Z,17.30
2023-02-27T02:37:47.912Z,12.20
2023-02-27T02:40:38.942Z,23.77
2023-02-27T02:43:15.324Z,19.92
2023-02-27T02:46:09.974Z,17.85
2023-02-27T02:49:03.578Z,12.02
2023-02-27T02:51:41.137Z,11.93
2023-02-27T02:54:41.587Z,9.40
2023-02-27T02:57:54.355Z,10.85
2023-02-27T03:00:54.523Z,10.73
2023-02-27T03:03:33.112Z,12.10
2023-02-27T03:06:04.302Z,10.65
2023-02-27T03:08:33.703Z,9.03
2023-02-27T03:11:03.772Z,11.88
2023-02-27T03:13:53.136Z,8.43
2023-02-27T03:16:28.153Z,8.10
2023-02-27T03:19:14.523Z,8.00
2023-02-27T03:22:05.224Z,15.27
2023-02-27T03:24:49.328Z,10.30
2023-02-27T03:27:16.764Z,13.85
2023-02-27T03:30:01.312Z,17.42
2023-02-27T03:32:33.643Z,20.73
2023-02-27T03:35:00.258Z,18.20
2023-02-27T03:37:49.964Z,20.35
2023-02-27T03:40:26.161Z,14.50
2023-02-27T03:43:04.997Z,22.08
2023-02-27T03:45:39.036Z,27.67
2023-02-27T03:48:06.809Z,30.98
2023-02-27T03:50:35.020Z,28.85
2023-02-27T03:53:07.227Z,37.10
2023-02-27T03:58:00.754Z,27.58
2023-02-27T04:00:27.842Z,25.75
2023-02-27T04:02:56.449Z,35.72
2023-02-27T04:05:23.137Z,27.23
2023-02-27T04:08:12.601Z,36.00
2023-02-27T04:11:27.104Z,25.08
2023-02-27T04:14:22.878Z,18.17
2023-02-27T04:16:55.118Z,18.63
2023-02-27T04:22:30.607Z,15.25
2023-02-27T04:25:17.153Z,12.38
2023-02-27T04:27:56.812Z,11.95
2023-02-27T04:30:36.774Z,11.02
2023-02-27T04:33:09.827Z,12.45
2023-02-27T04:36:15.305Z,10.63
2023-02-27T04:38:46.607Z,13.30
2023-02-27T04:41:16.629Z,11.18
2023-02-27T04:43:44.295Z,10.40
2023-02-27T04:46:13.100Z,11.68
2023-02-27T04:49:09.345Z,10.40
2023-02-27T04:51:39.889Z,23.13
2023-02-27T04:54:16.324Z,22.25
2023-02-27T04:56:48.353Z,29.27
2023-02-27T04:59:17.720Z,16.40
2023-02-27T05:01:50.026Z,16.98
2023-02-27T05:04:19.141Z,10.70
2023-02-27T05:06:47.145Z,11.70
2023-02-27T05:09:31.115Z,11.10
2023-02-27T05:12:28.228Z,9.55
2023-02-27T05:15:06.598Z,11.98
2023-02-27T05:17:45.091Z,8.30
2023-02-27T05:20:12.684Z,9.35
2023-02-27T05:22:50.892Z,10.70
2023-02-27T05:25:27.198Z,10.30
2023-02-27T05:27:59.124Z,12.32
2023-02-27T05:30:53.640Z,10.35
2023-02-27T05:33:36.881Z,7.85
2023-02-27T05:36:24.930Z,10.52
2023-02-27T05:38:59.990Z,9.95
2023-02-27T05:41:28.832Z,15.80
2023-02-27T05:44:17.403Z,10.93
2023-02-27T05:46:47.904Z,12.88
2023-02-27T05:49:18.313Z,10.70
2023-02-27T05:51:48.577Z,10.88
2023-02-27T05:54:36.142Z,14.75
2023-02-27T05:57:05.656Z,9.15
2023-02-27T05:59:59.552Z,9.18
2023-02-27T06:02:26.019Z,15.35
2023-02-27T06:04:52.521Z,10.88
2023-02-27T06:07:19.066Z,11.05
2023-02-27T06:09:47.189Z,16.15
2023-02-27T06:12:13.707Z,15.05
2023-02-27T06:14:40.096Z,15.05
2023-02-27T06:17:06.584Z,13.35
2023-02-27T06:19:33.012Z,15.13
2023-02-27T06:21:59.384Z,18.58
2023-02-27T06:24:26.715Z,17.20
2023-02-27T06:26:53.414Z,17.48
2023-02-27T06:29:19.799Z,14.25
2023-02-27T06:31:46.292Z,16.05
2023-02-27T06:34:12.674Z,14.13
2023-02-27T06:36:39.219Z,14.60
2023-02-27T06:39:06.081Z,12.25
2023-02-27T06:41:32.482Z,13.98
2023-02-27T06:43:58.928Z,14.95
2023-02-27T06:46:25.707Z,13.73
2023-02-27T06:48:52.329Z,21.20
2023-02-27T06:51:18.718Z,14.82
2023-02-27T06:53:45.108Z,16.38
2023-02-27T06:56:11.493Z,16.55
2023-02-27T06:58:37.863Z,17.08
2023-02-27T07:01:04.406Z,14.93
2023-02-27T07:03:30.841Z,20.35
2023-02-27T07:05:58.438Z,16.83
2023-02-27T07:08:24.974Z,15.48
2023-02-27T07:10:51.623Z,15.80
2023-02-27T07:13:19.660Z,14.60
2023-02-27T07:15:46.551Z,14.25
2023-02-27T07:18:13.102Z,16.10
2023-02-27T07:20:40.194Z,11.75
2023-02-27T07:23:06.684Z,12.02
2023-02-27T07:25:33.114Z,14.52
2023-02-27T07:27:59.509Z,14.27
2023-02-27T07:30:26.424Z,10.43
2023-02-27T07:32:52.856Z,10.15
2023-02-27T07:35:19.431Z,11.25
2023-02-27T07:37:47.464Z,11.95
2023-02-27T07:40:14.780Z,15.07
2023-02-27T07:42:41.294Z,22.00
2023-02-27T07:45:08.796Z,11.93
2023-02-27T07:47:35.620Z,15.85
2023-02-27T07:50:02.012Z,14.60
2023-02-27T07:52:31.352Z,17.08
2023-02-27T07:54:57.786Z,13.50
2023-02-27T07:57:24.169Z,13.90
2023-02-27T07:59:50.604Z,13.57
2023-02-27T08:02:17.112Z,14.63
2023-02-27T08:04:43.750Z,18.83
2023-02-27T08:07:10.258Z,14.35
2023-02-27T08:09:36.661Z,12.38
2023-02-27T08:12:03.153Z,17.30
2023-02-27T08:14:29.617Z,20.45
2023-02-27T08:16:56.101Z,14.52
2023-02-27T08:19:22.518Z,15.80
2023-02-27T08:21:48.937Z,13.27
2023-02-27T08:24:15.339Z,13.88
2023-02-27T08:26:41.818Z,16.98
2023-02-27T08:29:08.338Z,15.57
2023-02-27T08:31:35.163Z,15.30
2023-02-27T08:34:09.806Z,12.68
2023-02-27T08:36:36.522Z,11.77
2023-02-27T08:39:02.917Z,15.13
2023-02-27T08:41:29.291Z,27.20
2023-02-27T08:43:55.738Z,12.90
2023-02-27T08:46:22.141Z,14.80
2023-02-27T08:48:48.570Z,10.75
2023-02-27T08:51:15.076Z,10.27
2023-02-27T08:53:41.446Z,8.52
2023-02-27T08:56:07.942Z,11.20
2023-02-27T08:58:35.765Z,10.77
2023-02-27T09:01:02.916Z,9.10
2023-02-27T09:03:29.540Z,12.52
2023-02-27T09:05:56.120Z,9.80
2023-02-27T09:08:23.146Z,18.65
2023-02-27T09:10:49.681Z,12.05
2023-02-27T09:13:16.111Z,25.38
2023-02-27T09:15:42.514Z,10.60
2023-02-27T09:18:09.144Z,10.77
2023-02-27T09:20:35.875Z,7.72
2023-02-27T09:23:03.349Z,7.50
2023-02-27T09:25:30.024Z,10.85
2023-02-27T09:27:56.498Z,11.68
2023-02-27T09:30:23.157Z,8.27
2023-02-27T09:32:49.932Z,12.35
2023-02-27T09:35:16.926Z,8.10
2023-02-27T09:37:43.964Z,7.15
2023-02-27T09:40:20.873Z,5.93
2023-02-27T09:42:48.737Z,5.80
2023-02-27T09:45:25.319Z,12.02
2023-02-27T09:48:14.944Z,4.80
2023-02-27T09:50:44.622Z,6.03
2023-02-27T09:53:36.025Z,8.05
2023-02-27T09:56:31.617Z,7.03
2023-02-27T09:59:20.534Z,7.70
2023-02-27T10:01:51.380Z,3.55
2023-02-27T10:04:39.146Z,9.50
2023-02-27T10:07:13.071Z,7.55
2023-02-27T10:09:51.803Z,7.03
2023-02-27T10:12:23.962Z,9.32
2023-02-27T10:14:52.026Z,8.77
2023-02-27T10:17:43.532Z,4.07
2023-02-27T10:20:34.138Z,8.35
2023-02-27T10:23:05.331Z,8.50
2023-02-27T10:25:35.010Z,6.30
2023-02-27T10:28:11.727Z,6.13
2023-02-27T10:30:38.539Z,6.88
2023-02-27T10:33:32.646Z,4.40
2023-02-27T10:36:00.780Z,6.93
2023-02-27T10:38:29.226Z,7.00
2023-02-27T10:40:57.894Z,5.28
2023-02-27T10:43:24.735Z,6.57
2023-02-27T10:45:51.239Z,3.13
2023-02-27T10:48:18.213Z,10.25
2023-02-27T10:50:52.179Z,4.10
2023-02-27T10:53:25.444Z,5.28
2023-02-27T10:56:05.588Z,10.68
2023-02-27T10:58:35.205Z,4.68
2023-02-27T11:01:06.949Z,6.38
2023-02-27T11:03:36.391Z,6.13
2023-02-27T11:06:13.636Z,9.73
2023-02-27T11:08:40.437Z,5.40
2023-02-27T11:11:09.755Z,6.72
2023-02-27T11:13:41.253Z,5.93
2023-02-27T11:16:21.289Z,7.15
2023-02-27T11:18:49.617Z,5.75
2023-02-27T11:21:23.988Z,7.72
2023-02-27T11:23:53.628Z,4.85
2023-02-27T11:26:41.084Z,4.70
2023-02-27T11:29:12.754Z,9.10
2023-02-27T11:31:39.679Z,3.60
2023-02-27T11:34:08.236Z,7.75
2023-02-27T11:36:39.909Z,5.85
2023-02-27T11:39:06.614Z,4.75
2023-02-27T11:41:34.062Z,7.30
2023-02-27T11:44:02.240Z,8.93
2023-02-27T11:46:48.310Z,8.23
2023-02-27T11:49:37.147Z,10.52
2023-02-27T11:52:14.044Z,6.30
2023-02-27T11:54:46.911Z,4.22
2023-02-27T11:57:35.009Z,5.85
2023-02-27T12:00:06.692Z,4.90
2023-02-27T12:02:43.341Z,6.30
2023-02-27T12:05:15.245Z,12.07
2023-02-27T12:07:45.921Z,6.28
2023-02-27T12:10:20.932Z,5.80
2023-02-27T12:12:51.025Z,4.82
2023-02-27T12:15:37.553Z,5.03
2023-02-27T12:18:31.925Z,11.35
2023-02-27T12:21:05.179Z,10.73
2023-02-27T12:23:50.812Z,7.40
2023-02-27T12:26:42.347Z,9.75
2023-02-27T12:29:21.088Z,8.05
2023-02-27T12:31:51.737Z,5.07
2023-02-27T12:34:21.092Z,7.45
2023-02-27T12:36:48.691Z,4.97
2023-02-27T12:39:24.667Z,7.07
2023-02-27T12:41:54.089Z,7.93
2023-02-27T12:44:43.149Z,4.93
2023-02-27T12:47:20.117Z,4.43
2023-02-27T12:50:10.351Z,7.82
2023-02-27T12:53:04.431Z,7.20
2023-02-27T12:55:38.886Z,5.03
2023-02-27T12:58:08.180Z,7.75
2023-02-27T13:00:46.197Z,5.82
2023-02-27T13:03:50.354Z,6.30
2023-02-27T13:06:28.988Z,9.15
2023-02-27T13:09:43.146Z,7.75
2023-02-27T13:12:18.591Z,6.20
2023-02-27T13:14:49.104Z,6.55
2023-02-27T13:17:19.220Z,6.32
2023-02-27T13:19:57.455Z,6.70
2023-02-27T13:22:33.089Z,5.53
2023-02-27T13:25:01.451Z,4.72
2023-02-27T13:27:33.095Z,5.65
2023-02-27T13:30:34.411Z,8.10
2023-02-27T13:33:25.084Z,4.20
2023-02-27T13:36:24.689Z,4.10
2023-02-27T13:38:53.478Z,3.25
2023-02-27T13:41:22.889Z,6.20
2023-02-27T13:43:56.600Z,7.15
2023-02-27T13:46:23.002Z,7.43
2023-02-27T13:48:53.564Z,6.47
2023-02-27T13:51:47.143Z,3.88
2023-02-27T13:54:13.424Z,3.70
2023-02-27T13:56:50.961Z,5.03
2023-02-27T13:59:27.288Z,6.57
2023-02-27T14:01:56.571Z,2.72
2023-02-27T14:04:26.107Z,5.50
2023-02-27T14:06:58.648Z,5.25
2023-02-27T14:09:25.813Z,3.47
2023-02-27T14:11:58.611Z,4.93
2023-02-27T14:14:39.827Z,4.93
2023-02-27T14:17:07.037Z,5.82
2023-02-27T14:19:42.658Z,6.63
2023-02-27T14:22:10.801Z,5.50
2023-02-27T14:25:02.582Z,4.03
2023-02-27T14:27:36.376Z,4.90
2023-02-27T14:30:07.771Z,5.60
2023-02-27T14:32:35.663Z,8.98
2023-02-27T14:35:04.364Z,4.90
2023-02-27T14:37:31.407Z,5.15
2023-02-27T14:39:59.985Z,3.50
2023-02-27T14:42:44.927Z,6.63
2023-02-27T14:45:24.478Z,4.68
2023-02-27T14:47:52.008Z,3.53
2023-02-27T14:50:21.417Z,3.85
2023-02-27T14:52:47.808Z,4.30
2023-02-27T14:55:28.510Z,3.33
2023-02-27T14:57:54.962Z,3.30
2023-02-27T15:00:36.475Z,7.30
2023-02-27T15:03:26.857Z,3.25
2023-02-27T15:05:55.366Z,3.22
2023-02-27T15:08:32.949Z,4.55
2023-02-27T15:10:59.888Z,5.18
2023-02-27T15:13:35.093Z,4.45
2023-02-27T15:16:18.627Z,5.78
2023-02-27T15:18:53.557Z,3.10
2023-02-27T15:21:21.590Z,4.18
2023-02-27T15:23:59.322Z,3.85
2023-02-27T15:26:29.942Z,3.90
2023-02-27T15:28:59.654Z,3.08
2023-02-27T15:31:28.606Z,2.72
2023-02-27T15:33:55.774Z,4.03
2023-02-27T15:36:25.192Z,2.03
2023-02-27T15:39:06.759Z,3.08
2023-02-27T15:41:33.340Z,4.50
2023-02-27T15:44:00.468Z,2.90
2023-02-27T15:46:26.962Z,2.90
2023-02-27T15:48:54.473Z,3.08
2023-02-27T15:51:20.853Z,2.55
2023-02-27T15:53:54.667Z,4.55
2023-02-27T15:56:32.962Z,2.88
2023-02-27T15:59:01.111Z,2.30
2023-02-27T16:01:32.187Z,2.35
2023-02-27T16:04:01.596Z,2.78
2023-02-27T16:06:31.398Z,2.47
2023-02-27T16:09:04.501Z,2.97
2023-02-27T16:11:37.125Z,5.38
2023-02-27T16:14:04.173Z,3.92
2023-02-27T16:16:35.957Z,2.58
2023-02-27T16:19:26.130Z,8.25
2023-02-27T16:22:11.480Z,3.22
2023-02-27T16:24:37.859Z,3.10
2023-02-27T16:27:04.353Z,3.67
2023-02-27T16:29:44.090Z,4.43
2023-02-27T16:32:23.674Z,5.15
2023-02-27T16:34:50.793Z,6.18
2023-02-27T16:37:27.566Z,3.95
2023-02-27T16:39:54.353Z,3.30
2023-02-27T16:42:20.870Z,6.57
2023-02-27T16:44:47.296Z,6.55
2023-02-27T16:47:13.718Z,4.28
2023-02-27T16:49:40.402Z,4.38
2023-02-27T16:52:09.109Z,5.75
2023-02-27T16:54:35.515Z,5.85
2023-02-27T16:57:02.397Z,4.57
2023-02-27T16:59:39.001Z,6.10
2023-02-27T17:02:09.932Z,4.47
2023-02-27T17:04:36.471Z,8.13
2023-02-27T17:07:06.389Z,4.50
2023-02-27T17:09:33.081Z,9.27
2023-02-27T17:11:59.446Z,4.47
2023-02-27T17:14:25.879Z,4.53
2023-02-27T17:16:52.327Z,7.45
2023-02-27T17:19:21.287Z,3.92
2023-02-27T17:21:47.844Z,5.28
2023-02-27T17:24:14.224Z,5.20
2023-02-27T17:26:40.633Z,5.85
2023-02-27T17:29:08.403Z,4.13
2023-02-27T17:31:34.870Z,6.22
2023-02-27T17:34:03.672Z,5.20
2023-02-27T17:36:30.441Z,5.10
2023-02-27T17:38:58.003Z,12.30
2023-02-27T17:41:24.764Z,5.82
2023-02-27T17:43:53.500Z,7.50
2023-02-27T17:46:19.955Z,5.47
2023-02-27T17:48:46.701Z,5.10
2023-02-27T17:51:14.430Z,9.27
2023-02-27T17:53:41.000Z,6.90
2023-02-27T17:56:08.435Z,7.07
2023-02-27T17:58:35.559Z,6.55
2023-02-27T18:01:13.473Z,8.40
2023-02-27T18:03:40.593Z,10.43
2023-02-27T18:06:07.421Z,9.32
2023-02-27T18:08:34.133Z,8.75
2023-02-27T18:11:00.731Z,10.85
2023-02-27T18:13:28.113Z,10.75
2023-02-27T18:15:55.332Z,9.95
2023-02-27T18:18:22.482Z,7.10
2023-02-27T18:20:59.704Z,9.10
2023-02-27T18:23:26.117Z,8.98
2023-02-27T18:25:56.286Z,8.88
2023-02-27T18:28:22.959Z,8.75
2023-02-27T18:30:49.511Z,8.10
2023-02-27T18:33:15.939Z,10.60
2023-02-27T18:35:42.403Z,5.93
2023-02-27T18:38:08.807Z,6.50
2023-02-27T18:40:35.192Z,9.52
2023-02-27T18:43:01.596Z,5.70
2023-02-27T18:45:29.619Z,6.65
2023-02-27T18:47:56.088Z,5.72
2023-02-27T18:50:22.855Z,7.32
2023-02-27T18:52:50.066Z,6.57
2023-02-27T18:55:17.520Z,9.65
2023-02-27T18:57:44.993Z,7.07
2023-02-27T19:00:12.544Z,9.07
2023-02-27T19:02:41.752Z,5.70
2023-02-27T19:05:10.992Z,9.82
2023-02-27T19:07:38.633Z,6.57
2023-02-27T19:10:07.280Z,6.00
2023-02-27T19:12:33.693Z,7.13
2023-02-27T19:15:00.105Z,7.78
2023-02-27T19:17:26.498Z,6.35
2023-02-27T19:19:53.431Z,6.35
2023-02-27T19:22:20.099Z,8.95
2023-02-27T19:24:46.957Z,5.50
2023-02-27T19:27:13.657Z,5.82
2023-02-27T19:29:40.068Z,5.75
2023-02-27T19:32:08.214Z,6.18
2023-02-27T19:34:34.655Z,8.38
2023-02-27T19:37:01.029Z,10.18
2023-02-27T19:39:27.439Z,7.47
2023-02-27T19:41:53.809Z,9.55
2023-02-27T19:44:20.203Z,11.00
2023-02-27T19:46:51.224Z,12.18
2023-02-27T19:49:17.963Z,8.02
2023-02-27T19:51:44.447Z,9.18
2023-02-27T19:54:15.454Z,12.02
2023-02-27T19:56:42.374Z,8.27
2023-02-27T19:59:10.841Z,11.45
2023-02-27T20:01:38.823Z,10.77
2023-02-27T20:04:06.561Z,8.75
2023-02-27T20:06:41.595Z,18.67
2023-02-27T20:09:10.308Z,10.15
2023-02-27T20:11:36.727Z,9.27
2023-02-27T20:14:04.178Z,10.18
2023-02-27T20:16:35.406Z,11.98
2023-02-27T20:19:06.792Z,10.83
2023-02-27T20:21:33.787Z,11.00
2023-02-27T20:24:00.789Z,12.55
2023-02-27T20:26:32.471Z,8.18
2023-02-27T20:29:05.572Z,14.48
2023-02-27T20:31:35.133Z,11.07
2023-02-27T20:34:02.170Z,12.63
2023-02-27T20:36:28.656Z,12.05
2023-02-27T20:38:55.552Z,9.63
2023-02-27T20:41:22.797Z,8.60
2023-02-27T20:43:49.602Z,8.95
2023-02-27T20:46:19.924Z,9.55
2023-02-27T20:48:46.879Z,11.85
2023-02-27T20:51:24.388Z,11.70
2023-02-27T20:53:52.859Z,9.55
2023-02-27T20:56:27.281Z,9.05
2023-02-27T20:58:53.743Z,8.40
2023-02-27T21:01:20.449Z,9.60
2023-02-27T21:03:50.336Z,11.95
2023-02-27T21:06:17.555Z,15.95
2023-02-27T21:08:46.951Z,14.00
2023-02-27T21:11:16.535Z,10.48
2023-02-27T21:13:44.042Z,12.35
2023-02-27T21:16:10.977Z,16.58
2023-02-27T21:18:38.021Z,12.23
2023-02-27T21:21:06.334Z,12.65
2023-02-27T21:23:33.255Z,12.02
2023-02-27T21:25:59.784Z,11.68
2023-02-27T21:28:26.207Z,12.80
2023-02-27T21:30:54.418Z,14.98
2023-02-27T21:33:22.249Z,15.23
2023-02-27T21:35:48.892Z,11.32
2023-02-27T21:38:16.332Z,14.90
2023-02-27T21:40:42.976Z,15.25
2023-02-27T21:43:09.632Z,13.73
2023-02-27T21:45:41.361Z,21.20
2023-02-27T21:48:08.151Z,11.50
2023-02-27T21:50:35.857Z,15.43
2023-02-27T21:53:02.245Z,11.85
2023-02-27T21:55:28.639Z,17.23
2023-02-27T21:57:55.009Z,12.55
2023-02-27T22:00:23.064Z,11.40
2023-02-27T22:02:49.588Z,12.68
2023-02-27T22:05:15.988Z,11.02
2023-02-27T22:07:42.424Z,15.30
2023-02-27T22:10:09.617Z,11.98
2023-02-27T22:12:36.032Z,12.95
2023-02-27T22:15:03.026Z,11.75
2023-02-27T22:17:29.440Z,16.65
2023-02-27T22:19:55.841Z,15.90
2023-02-27T22:22:22.213Z,13.55
2023-02-27T22:24:48.614Z,14.02
2023-02-27T22:27:15.211Z,11.60
2023-02-27T22:29:43.053Z,12.68
2023-02-27T22:32:09.571Z,11.38
2023-02-27T22:34:36.008Z,14.45
2023-02-27T22:37:02.396Z,13.85
2023-02-27T22:39:28.784Z,17.50
2023-02-27T22:41:56.835Z,14.52
2023-02-27T22:44:23.359Z,12.43
2023-02-27T22:46:50.056Z,13.88
2023-02-27T22:49:21.477Z,15.57
2023-02-27T22:51:50.844Z,18.65
2023-02-27T22:54:18.182Z,12.68
2023-02-27T22:56:44.679Z,13.73
2023-02-27T22:59:11.085Z,12.77
2023-02-27T23:01:37.894Z,8.18
2023-02-27T23:04:07.123Z,7.45
2023-02-27T23:06:37.033Z,9.10
2023-02-27T23:09:05.134Z,8.38
2023-02-27T23:11:31.859Z,7.75
2023-02-27T23:13:58.440Z,7.57
2023-02-27T23:16:25.073Z,10.13
2023-02-27T23:18:55.595Z,6.45
2023-02-27T23:21:30.184Z,8.20
2023-02-27T23:23:57.982Z,5.68
2023-02-27T23:26:28.365Z,4.78
2023-02-27T23:28:55.603Z,6.07
2023-02-27T23:31:22.284Z,8.90
2023-02-27T23:33:48.756Z,6.78
2023-02-27T23:36:15.415Z,15.23
2023-02-27T23:38:42.905Z,10.50
2023-02-27T23:41:09.850Z,12.13
2023-02-27T23:43:54.871Z,11.75
2023-02-27T23:46:21.769Z,12.82
2023-02-27T23:48:48.322Z,12.65
2023-02-27T23:51:15.176Z,10.43
2023-02-27T23:53:42.625Z,14.60
2023-02-27T23:56:13.404Z,13.43
2023-02-27T23:58:39.820Z,11.25
